This is the latest recevied weather packets stored in our database for station/object TA2NC-13. If no packets are shown the sender has not sent any weather packets the latest 10 day(s).
| Time | Temp. | Humidity | Pressure | Rain* | Wind** | Luminosity | Snow |
|---|---|---|---|---|---|---|---|
| 1777593001 | 11.11° C | 62% | 1013.5 hPa | 0 mm | - | - | - |
| 1777592400 | 11.11° C | 62% | 1013.5 hPa | 0 mm | - | - | - |
| 1777591800 | 11.11° C | 61% | 1013.5 hPa | 0 mm | - | - | - |
| 1777591200 | 11.11° C | 61% | 1013.5 hPa | 0 mm | - | - | - |
| 1777590601 | 11.11° C | 60% | 1013.5 hPa | 0 mm | - | - | - |
| 1777590001 | 11.11° C | 60% | 1013.5 hPa | 0 mm | - | - | - |
| 1777589400 | 11.67° C | 58% | 1013.5 hPa | 0 mm | - | - | - |
| 1777588801 | 11.67° C | 57% | 1013.5 hPa | 0 mm | - | - | - |
| 1777588200 | 11.67° C | 58% | 1013.5 hPa | 0 mm | - | - | - |
| 1777587600 | 12.22° C | 57% | 1013.5 hPa | 0 mm | - | - | - |
| 1777587000 | 12.22° C | 56% | 1013.5 hPa | 0 mm | - | - | - |
| 1777586401 | 12.78° C | 54% | 1013.5 hPa | 0 mm | - | - | - |
| 1777585800 | 12.78° C | 54% | 1013.5 hPa | 0 mm | - | - | - |
| 1777585201 | 12.78° C | 53% | 1013.5 hPa | 0 mm | - | - | - |
| 1777584600 | 13.33° C | 51% | 1013.5 hPa | 0 mm | - | - | - |
| 1777584001 | 13.89° C | 49% | 1013.5 hPa | 0 mm | - | - | - |
| 1777583401 | 14.44° C | 48% | 1014 hPa | 0 mm | - | - | - |
| 1777582801 | 14.44° C | 49% | 1014 hPa | 0 mm | - | - | - |
| 1777582201 | 14.44° C | 49% | 1014 hPa | 0 mm | - | - | - |
| 1777581601 | 14.44° C | 45% | 1014 hPa | 0 mm | - | - | - |
| 1777581001 | 15° C | 43% | 1014 hPa | 0 mm | - | - | - |
| 1777580401 | 15.56° C | 41% | 1014 hPa | 0 mm | - | - | - |
| 1777579800 | 15.56° C | 41% | 1013 hPa | 0 mm | - | - | - |
| 1777579201 | 15° C | 40% | 1013 hPa | 0 mm | - | - | - |
| 1777578602 | 14.44° C | 46% | 1013 hPa | 0 mm | - | - | - |
* Rain latest hour (hover to see other rain measurements)
** Current wind speed in m/s (hover to see current wind gust speed)